Terminal Aerodrome Forecast
Issued by NWS

Home | Current Version | Previous Version | Text Only | Print | Product List | Glossary On
Versions: 1 2 3 4 5 6 7 8 9 10 11 12 13 14 15 16 17 18 19 20 21 22
000
FTUS41 KPHI 012351
TAFPNE
TAF
KPNE 012351Z 0200/0224 15005KT 3SM -FZRA OVC009
      TEMPO 0203/0206 6SM -FZRA
     FM020600 24005KT 4SM BR OVC006
      TEMPO 0206/0209 2SM -FZDZ
     FM021000 31010KT P6SM OVC040
     FM021400 30014G24KT P6SM SCT040 BKN250=

USA.gov is the U.S. government's official web portal to all federal, state and local government web resources and services.